Time;durP1;ratioP1;P1;durP2;ratioP2;P2;SDS_P1;SDS_P2;PMS_P1;PMS_P2;Temp;Humidity;BMP_temperature;BMP_pressure;BME280_temperature;BME280_humidity;BME280_pressure;Samples;Min_cycle;Max_cycle;Signal;HPM_P1;HPM_P2
2023/04/25 00:00:21;;;;;;;19.53;3.83;;;;;;;6.50;100.00;99658.91;5066411;28;20276;-72
2023/04/25 00:02:46;;;;;;;11.73;4.10;;;;;;;6.54;100.00;99670.84;5065838;28;20151;-72
2023/04/25 00:05:14;;;;;;;17.00;3.73;;;;;;;6.56;100.00;99666.22;5069472;28;20044;-73
2023/04/25 00:07:41;;;;;;;22.65;4.07;;;;;;;6.56;100.00;99652.97;5071263;28;20303;-72
2023/04/25 00:10:08;;;;;;;27.10;3.85;;;;;;;6.45;100.00;99648.78;5068217;28;20393;-72
2023/04/25 00:12:33;;;;;;;;;;;;;;;6.59;100.00;99649.97;5070034;28;20035;-72
2023/04/25 00:14:59;;;;;;;18.17;4.20;;;;;;;6.61;100.00;99649.81;5067552;28;19912;-71
2023/04/25 00:17:25;;;;;;;11.25;3.90;;;;;;;6.59;100.00;99639.38;5069196;28;20061;-72
2023/04/25 00:19:50;;;;;;;16.10;4.10;;;;;;;6.56;100.00;99634.41;5068290;28;20044;-72
2023/04/25 00:22:16;;;;;;;15.93;5.23;;;;;;;6.58;100.00;99621.81;5076916;28;20033;-72
2023/04/25 00:24:41;;;;;;;21.20;4.55;;;;;;;6.53;100.00;99616.16;5052831;28;20782;-73
2023/04/25 00:27:07;;;;;;;24.37;5.10;;;;;;;6.54;100.00;99626.59;5068857;28;20028;-71
2023/04/25 00:29:33;;;;;;;14.88;3.50;;;;;;;6.47;100.00;99619.47;5068435;28;20548;-71
2023/04/25 00:31:58;;;;;;;27.73;5.28;;;;;;;6.46;100.00;99633.69;5071917;28;20044;-72
2023/04/25 00:34:24;;;;;;;21.37;5.03;;;;;;;6.48;100.00;99621.94;5070838;28;20063;-72
2023/04/25 00:36:49;;;;;;;19.30;5.40;;;;;;;6.46;100.00;99641.66;5071935;28;20458;-72
2023/04/25 00:39:14;;;;;;;18.37;3.93;;;;;;;6.44;100.00;99646.28;5068189;28;20039;-73
2023/04/25 00:41:40;;;;;;;13.83;4.93;;;;;;;6.34;100.00;99636.69;5068500;28;20385;-72
2023/04/25 00:44:11;;;;;;;45.45;4.82;;;;;;;6.34;100.00;99642.00;5069712;28;20028;-72
2023/04/25 00:46:36;;;;;;;21.33;4.40;;;;;;;6.33;100.00;99652.75;5072152;28;20504;-72
2023/04/25 00:49:02;;;;;;;16.80;3.40;;;;;;;6.38;100.00;99674.28;5070994;28;20024;-72
2023/04/25 00:51:28;;;;;;;16.35;4.22;;;;;;;6.39;100.00;99673.31;5072776;28;20028;-70
2023/04/25 00:53:53;;;;;;;15.82;4.45;;;;;;;6.39;100.00;99673.31;5070478;28;20036;-71
2023/04/25 00:56:21;;;;;;;15.00;4.55;;;;;;;6.35;100.00;99656.06;5051552;28;20044;-72
2023/04/25 00:58:47;;;;;;;17.42;4.65;;;;;;;6.36;100.00;99654.25;5073027;28;20182;-72
2023/04/25 01:01:13;;;;;;;15.55;5.05;;;;;;;6.35;100.00;99664.00;5072953;28;20426;-72
2023/04/25 01:03:42;;;;;;;20.17;3.55;;;;;;;6.34;100.00;99676.44;5072452;28;20059;-72
2023/04/25 01:06:09;;;;;;;24.15;5.32;;;;;;;6.41;100.00;99687.22;5055431;28;20040;-71
2023/04/25 01:08:36;;;;;;;16.00;4.53;;;;;;;6.38;100.00;99684.06;5053416;28;20025;-72
2023/04/25 01:11:02;;;;;;;25.13;5.57;;;;;;;6.37;100.00;99677.09;5056840;28;20421;-71
2023/04/25 01:13:28;;;;;;;19.75;5.07;;;;;;;6.39;100.00;99685.72;5067630;28;20385;-72
2023/04/25 01:15:53;;;;;;;17.20;4.63;;;;;;;6.41;100.00;99675.78;5071355;28;20123;-72
2023/04/25 01:18:20;;;;;;;19.17;4.37;;;;;;;6.33;100.00;99666.81;5070082;28;20793;-73
2023/04/25 01:20:46;;;;;;;20.42;4.75;;;;;;;6.27;100.00;99650.72;5068254;28;20285;-73
2023/04/25 01:23:13;;;;;;;16.92;4.72;;;;;;;6.31;100.00;99652.91;5077875;28;20040;-72
2023/04/25 01:25:39;;;;;;;21.70;5.35;;;;;;;6.25;100.00;99640.31;5069785;28;20017;-72
2023/04/25 01:28:05;;;;;;;19.00;5.13;;;;;;;6.23;100.00;99614.97;5070957;28;20209;-72
2023/04/25 01:30:31;;;;;;;21.33;4.65;;;;;;;6.25;100.00;99611.16;5067611;28;20447;-72
2023/04/25 01:32:57;;;;;;;18.88;4.65;;;;;;;6.22;100.00;99587.59;5070921;28;20194;-71
2023/04/25 01:35:23;;;;;;;23.67;4.35;;;;;;;6.16;100.00;99585.63;5072077;28;20464;-72
2023/04/25 01:37:52;;;;;;;30.70;6.90;;;;;;;6.20;100.00;99578.97;5068383;28;20016;-71
2023/04/25 01:40:20;;;;;;;25.30;5.23;;;;;;;6.07;100.00;99565.38;5067323;28;20115;-72
2023/04/25 01:42:46;;;;;;;22.23;4.55;;;;;;;6.05;100.00;99568.19;5069101;28;20029;-72
2023/04/25 01:45:11;;;;;;;22.73;5.63;;;;;;;5.93;100.00;99543.78;5079988;28;20047;-72
2023/04/25 01:47:39;;;;;;;19.85;5.47;;;;;;;5.90;100.00;99544.13;5055287;28;20283;-72
2023/04/25 01:50:06;;;;;;;18.15;5.65;;;;;;;5.82;100.00;99520.25;5072424;28;20020;-72
2023/04/25 01:52:32;;;;;;;27.45;5.35;;;;;;;5.72;100.00;99527.50;5071493;28;20519;-71
2023/04/25 01:55:00;;;;;;;21.77;3.92;;;;;;;5.71;100.00;99573.50;5056152;28;20036;-72
2023/04/25 01:57:27;;;;;;;22.27;4.57;;;;;;;5.64;100.00;99567.19;5069438;28;20158;-72
2023/04/25 02:00:09;;;;;;;20.52;4.70;;;;;;;5.67;100.00;99577.47;5070339;28;20028;-72
2023/04/25 02:02:37;;;;;;;21.80;5.32;;;;;;;5.60;100.00;99579.09;5071015;28;20139;-71
2023/04/25 02:05:05;;;;;;;28.48;5.63;;;;;;;5.45;100.00;99568.25;5055998;28;20066;-72
2023/04/25 02:07:33;;;;;;;21.38;4.95;;;;;;;5.52;100.00;99587.81;5073806;28;20074;-72
2023/04/25 02:09:58;;;;;;;21.50;4.43;;;;;;;5.55;100.00;99595.47;5055581;28;20028;-72
2023/04/25 02:12:27;;;;;;;24.02;5.70;;;;;;;5.54;100.00;99585.03;5066785;28;20032;-72
2023/04/25 02:15:18;;;;;;;15.95;4.72;;;;;;;5.61;100.00;99599.28;5071515;28;20537;-72
2023/04/25 02:17:52;;;;;;;24.60;4.20;;;;;;;5.63;100.00;99573.47;5072056;28;20032;-73
2023/04/25 02:20:21;;;;;;;19.33;4.47;;;;;;;5.62;100.00;99587.69;5078410;28;20098;-71
2023/04/25 02:22:46;;;;;;;23.15;5.07;;;;;;;5.45;100.00;99560.31;5067410;28;20478;-72
2023/04/25 02:25:12;;;;;;;25.48;6.30;;;;;;;5.40;100.00;99531.69;5070825;28;20474;-71
2023/04/25 02:27:38;;;;;;;29.23;4.72;;;;;;;5.42;100.00;99540.28;5068854;28;20072;-72
2023/04/25 02:30:06;;;;;;;24.95;4.35;;;;;;;5.40;100.00;99547.56;5069480;28;20066;-72
2023/04/25 02:32:34;;;;;;;22.52;4.63;;;;;;;5.38;100.00;99549.53;5059081;28;20452;-70
2023/04/25 02:35:03;;;;;;;22.73;5.38;;;;;;;5.38;100.00;99541.59;5056367;28;20478;-72
2023/04/25 02:37:30;;;;;;;24.50;5.78;;;;;;;5.31;100.00;99519.41;5054836;28;20043;-72
2023/04/25 02:39:55;;;;;;;21.52;4.97;;;;;;;5.35;100.00;99507.50;5055700;28;20029;-71
2023/04/25 02:42:20;;;;;;;18.52;5.00;;;;;;;5.34;100.00;99524.41;5070277;28;20508;-71
2023/04/25 02:44:46;;;;;;;28.60;5.80;;;;;;;5.32;100.00;99510.50;5071052;28;20482;-72
2023/04/25 02:47:11;;;;;;;24.90;7.03;;;;;;;5.26;100.00;99514.56;5073699;28;20557;-72
2023/04/25 02:49:36;;;;;;;31.10;6.80;;;;;;;5.19;100.00;99512.72;5065672;28;20414;-72
2023/04/25 02:52:02;;;;;;;25.70;4.80;;;;;;;5.12;100.00;99543.44;5069219;28;20048;-71
2023/04/25 02:54:27;;;;;;;25.23;4.68;;;;;;;4.99;100.00;99528.84;5068995;28;20287;-71
2023/04/25 02:56:53;;;;;;;23.17;4.32;;;;;;;4.98;100.00;99521.88;5067969;28;20477;-72
2023/04/25 02:59:24;;;;;;;24.67;7.00;;;;;;;4.95;100.00;99497.56;5066918;28;20545;-72
2023/04/25 03:01:49;;;;;;;22.37;5.10;;;;;;;4.93;100.00;99497.72;5054927;28;20060;-72
2023/04/25 03:04:15;;;;;;;17.60;4.73;;;;;;;4.84;100.00;99491.53;5058645;28;20274;-72
2023/04/25 03:06:40;;;;;;;18.77;5.30;;;;;;;4.88;100.00;99513.22;5068467;28;20443;-72
2023/04/25 03:09:06;;;;;;;15.40;4.60;;;;;;;4.73;100.00;99481.25;5068662;28;20608;-72
2023/04/25 03:11:31;;;;;;;19.92;4.38;;;;;;;4.80;100.00;99470.84;5068328;28;20043;-72
2023/04/25 03:13:57;;;;;;;24.77;5.05;;;;;;;4.72;100.00;99474.28;5072189;28;20042;-70
2023/04/25 03:16:23;;;;;;;34.27;5.97;;;;;;;4.77;100.00;99489.69;5069178;28;20028;-72
2023/04/25 03:18:50;;;;;;;28.50;5.68;;;;;;;4.67;100.00;99449.31;5071143;28;20305;-72
2023/04/25 03:21:15;;;;;;;21.50;5.18;;;;;;;4.67;100.00;99418.41;5063008;28;20020;-72
2023/04/25 03:23:41;;;;;;;25.07;6.27;;;;;;;4.56;100.00;99398.34;5053077;28;20037;-72
2023/04/25 03:26:07;;;;;;;24.13;5.50;;;;;;;4.54;100.00;99421.47;5066875;28;20171;-72
2023/04/25 03:28:32;;;;;;;30.08;5.55;;;;;;;4.50;100.00;99451.84;5067867;28;20151;-71
2023/04/25 03:30:57;;;;;;;29.97;5.43;;;;;;;4.46;100.00;99469.00;5071350;28;20032;-71
2023/04/25 03:33:23;;;;;;;18.20;4.68;;;;;;;4.50;100.00;99514.47;5052051;28;20550;-72
2023/04/25 03:35:49;;;;;;;27.50;5.22;;;;;;;4.48;100.00;99551.59;5069071;28;20036;-74
2023/04/25 03:38:15;;;;;;;33.63;5.03;;;;;;;4.57;100.00;99582.41;5065651;28;20436;-73
2023/04/25 03:40:41;;;;;;;18.08;4.50;;;;;;;4.58;100.00;99607.84;5065916;28;20037;-73
2023/04/25 03:43:17;;;;;;;25.00;6.13;;;;;;;4.61;100.00;99625.22;5073078;28;20036;-72
2023/04/25 03:45:49;;;;;;;21.85;4.75;;;;;;;4.65;100.00;99594.84;5055612;28;20029;-72
2023/04/25 03:48:17;;;;;;;19.38;5.40;;;;;;;4.67;100.00;99540.03;5060589;28;20501;-72
2023/04/25 03:50:43;;;;;;;22.13;5.50;;;;;;;4.65;100.00;99483.81;5068037;28;20020;-72
2023/04/25 03:53:08;;;;;;;21.98;5.05;;;;;;;4.60;100.00;99473.72;5057965;28;20340;-74
2023/04/25 03:55:54;;;;;;;23.75;4.75;;;;;;;4.66;100.00;99480.22;5070032;28;20501;-73
2023/04/25 03:58:19;;;;;;;22.47;4.13;;;;;;;4.60;100.00;99397.03;5051161;28;20055;-72
2023/04/25 04:00:44;;;;;;;20.13;4.40;;;;;;;4.59;100.00;99302.88;5053523;28;20025;-73
2023/04/25 04:03:10;;;;;;;26.02;5.20;;;;;;;4.63;100.00;99269.00;5060681;28;20370;-74
2023/04/25 04:05:37;;;;;;;;;;;;;;;4.75;100.00;99264.25;5069894;28;20104;-73
2023/04/25 04:08:02;;;;;;;15.13;3.45;;;;;;;4.70;100.00;99258.63;5072559;28;20384;-70
2023/04/25 04:10:27;;;;;;;22.33;4.05;;;;;;;4.67;100.00;99243.09;5069462;28;20024;-71
2023/04/25 04:12:54;;;;;;;28.52;5.05;;;;;;;4.63;100.00;99239.94;5072669;28;20028;-74
2023/04/25 04:15:19;;;;;;;22.00;4.78;;;;;;;4.65;100.00;99208.88;5069248;28;20025;-72
2023/04/25 04:17:48;;;;;;;20.80;4.15;;;;;;;4.65;100.00;99236.13;5069523;28;20029;-71
2023/04/25 04:20:14;;;;;;;16.20;4.15;;;;;;;4.71;100.00;99276.97;5078483;28;20020;-71
2023/04/25 04:22:39;;;;;;;17.20;5.55;;;;;;;4.70;100.00;99271.84;5068981;28;20020;-72
2023/04/25 04:25:09;;;;;;;23.27;5.53;;;;;;;4.71;100.00;99245.25;5073323;28;20032;-72
2023/04/25 04:27:55;;;;;;;24.30;4.10;;;;;;;4.73;100.00;99258.28;5074316;28;20048;-72
2023/04/25 04:30:29;;;;;;;17.17;5.78;;;;;;;4.77;100.00;99299.28;5069729;28;20082;-71
2023/04/25 04:33:00;;;;;;;25.45;5.82;;;;;;;4.78;100.00;99245.44;5058206;28;20024;-71
2023/04/25 04:35:26;;;;;;;18.60;4.47;;;;;;;4.79;100.00;99202.13;5068733;28;20021;-72
2023/04/25 04:37:53;;;;;;;17.98;3.78;;;;;;;4.82;100.00;99170.06;5057923;28;20054;-71
2023/04/25 04:40:21;;;;;;;17.33;4.30;;;;;;;4.91;100.00;99123.31;5070368;28;20036;-72
2023/04/25 04:42:56;;;;;;;28.98;4.07;;;;;;;4.95;100.00;99045.28;5069512;28;20054;-72
2023/04/25 04:45:27;;;;;;;17.08;4.00;;;;;;;5.05;100.00;99062.63;5072569;28;20290;-70
2023/04/25 04:48:16;;;;;;;24.20;4.93;;;;;;;5.01;100.00;99048.09;5066868;28;20422;-72
2023/04/25 04:51:15;;;;;;;17.15;4.53;;;;;;;4.90;100.00;98926.78;5070477;28;20476;-72
2023/04/25 04:53:51;;;;;;;23.45;4.63;;;;;;;4.94;100.00;98832.91;5069097;28;20028;-72
2023/04/25 04:56:23;;;;;;;21.75;4.43;;;;;;;4.99;100.00;98841.13;5066670;28;20031;-72
2023/04/25 04:58:48;;;;;;;22.88;4.18;;;;;;;5.05;100.00;98887.22;5073681;28;20036;-72
2023/04/25 05:01:25;;;;;;;;;;;;;;;5.05;100.00;98868.72;5075705;28;20042;-72
2023/04/25 05:04:00;;;;;;;17.75;4.22;;;;;;;5.06;100.00;98873.84;5057030;28;20014;-72
2023/04/25 05:06:41;;;;;;;17.52;4.53;;;;;;;5.04;100.00;98815.00;5074690;28;20116;-71
2023/04/25 05:09:15;;;;;;;23.02;3.78;;;;;;;5.11;100.00;98843.41;5072839;28;20028;-72
2023/04/25 05:12:00;;;;;;;13.18;3.22;;;;;;;5.17;100.00;98822.34;5076432;28;20071;-71
2023/04/25 05:14:35;;;;;;;25.63;3.53;;;;;;;5.08;100.00;98731.66;5058506;28;20128;-72
2023/04/25 05:17:19;;;;;;;16.02;4.03;;;;;;;5.03;100.00;98743.75;5078306;28;20035;-72
2023/04/25 05:20:01;;;;;;;29.40;5.03;;;;;;;5.21;100.00;98879.22;5075489;28;20067;-72
2023/04/25 05:22:47;;;;;;;25.50;4.65;;;;;;;5.24;100.00;98827.75;5078664;28;20054;-72
2023/04/25 05:25:23;;;;;;;23.90;5.03;;;;;;;5.28;100.00;98821.13;5086408;28;20035;-72
2023/04/25 05:27:50;;;;;;;20.60;4.37;;;;;;;5.24;100.00;98775.69;5087586;28;20032;-72
2023/04/25 05:30:36;;;;;;;16.92;4.43;;;;;;;5.30;100.00;98742.41;5085761;28;20016;-72
2023/04/25 05:33:15;;;;;;;22.58;3.65;;;;;;;5.34;100.00;98695.22;5078552;28;20027;-72
2023/04/25 05:35:42;;;;;;;20.42;3.97;;;;;;;5.36;100.00;98767.31;5085938;28;20080;-72
2023/04/25 05:38:08;;;;;;;20.40;3.75;;;;;;;5.32;100.00;98698.06;5085789;28;20490;-72
2023/04/25 05:40:53;;;;;;;13.43;3.15;;;;;;;5.44;100.00;98801.69;5084196;28;20900;-73
2023/04/25 05:43:37;;;;;;;10.95;2.97;;;;;;;5.54;100.00;98819.97;5070085;22;20786;-86
2023/04/25 05:46:19;;;;;;;17.65;3.35;;;;;;;5.41;100.00;98691.69;4995982;28;20904;-87
2023/04/25 05:49:04;;;;;;;16.02;4.25;;;;;;;5.57;100.00;98724.28;5010488;28;20488;-86
2023/04/25 05:51:42;;;;;;;20.15;4.13;;;;;;;5.67;100.00;98727.53;5012267;28;20714;-86
2023/04/25 05:54:29;;;;;;;20.35;3.80;;;;;;;5.62;100.00;98719.28;4992066;28;20026;-87
2023/04/25 05:56:58;;;;;;;;;;;;;;;5.58;100.00;98515.00;4994141;28;20108;-89
2023/04/25 05:59:24;;;;;;;19.13;3.65;;;;;;;5.52;100.00;98480.50;5007115;28;19952;-88
2023/04/25 06:01:50;;;;;;;18.27;4.05;;;;;;;5.53;100.00;98488.28;4991679;28;20064;-89
2023/04/25 06:04:15;;;;;;;29.60;4.03;;;;;;;5.53;100.00;98467.09;4993783;28;20118;-88
2023/04/25 06:06:40;;;;;;;19.17;3.77;;;;;;;5.59;100.00;98492.00;4993613;28;20489;-88
2023/04/25 06:09:06;;;;;;;14.73;4.20;;;;;;;5.57;100.00;98361.66;5010028;28;20281;-88
2023/04/25 06:11:32;;;;;;;12.15;3.03;;;;;;;5.64;100.00;98503.69;4993753;28;20819;-86
2023/04/25 06:13:59;;;;;;;20.73;5.20;;;;;;;5.75;100.00;98438.81;5009748;28;20121;-89
2023/04/25 06:16:28;;;;;;;18.98;4.45;;;;;;;5.80;100.00;98409.94;5007641;28;20031;-89
2023/04/25 06:18:59;;;;;;;9.25;2.83;;;;;;;5.80;100.00;98333.16;5008483;28;20488;-89
2023/04/25 06:21:31;;;;;;;17.40;4.15;;;;;;;5.95;100.00;98330.47;4995309;28;20858;-88
2023/04/25 06:24:01;;;;;;;17.55;3.03;;;;;;;5.93;100.00;98256.47;5010159;28;20773;-89
2023/04/25 06:26:31;;;;;;;14.25;4.05;;;;;;;5.92;100.00;98273.41;4993992;28;20041;-89
2023/04/25 06:29:02;;;;;;;26.63;3.77;;;;;;;5.87;100.00;98236.06;5009641;28;20022;-89
2023/04/25 06:31:28;;;;;;;20.83;3.10;;;;;;;5.68;100.00;98096.44;5010492;28;20030;-88
2023/04/25 06:33:58;;;;;;;13.55;4.00;;;;;;;5.74;100.00;98288.13;5010450;28;20041;-89
2023/04/25 06:36:25;;;;;;;17.45;3.85;;;;;;;5.74;100.00;98352.47;4994338;28;20025;-89
2023/04/25 06:38:54;;;;;;;18.08;4.20;;;;;;;5.86;100.00;98504.53;5010242;28;20440;-87
2023/04/25 06:41:20;;;;;;;17.50;3.28;;;;;;;5.84;100.00;98472.13;5010058;28;20064;-87
2023/04/25 06:43:46;;;;;;;15.43;4.10;;;;;;;5.79;100.00;98526.66;5001426;28;20041;-86
2023/04/25 06:46:28;;;;;;;13.70;3.85;;;;;;;5.72;100.00;98558.34;4993311;28;20034;-86
2023/04/25 06:48:56;;;;;;;18.45;3.75;;;;;;;5.74;100.00;98638.44;5025414;28;20575;-86
2023/04/25 06:51:22;;;;;;;14.63;4.30;;;;;;;5.93;100.00;98700.59;4995188;28;20030;-88
2023/04/25 06:53:47;;;;;;;14.75;3.53;;;;;;;6.12;100.00;98792.00;4996676;28;20033;-88
2023/04/25 06:56:23;;;;;;;17.65;4.38;;;;;;;6.20;100.00;98706.28;4994630;28;20041;-87
2023/04/25 06:58:55;;;;;;;16.65;3.30;;;;;;;6.34;100.00;98647.13;5009723;28;20116;-87
2023/04/25 07:01:27;;;;;;;16.65;3.17;;;;;;;6.78;100.00;98746.97;5011533;28;20048;-87
2023/04/25 07:03:53;;;;;;;23.42;4.35;;;;;;;7.14;100.00;98765.53;4992865;28;20117;-90
2023/04/25 07:06:19;;;;;;;14.95;2.97;;;;;;;7.05;100.00;98540.31;5006694;28;20141;-89
2023/04/25 07:08:55;;;;;;;21.00;3.85;;;;;;;7.15;100.00;98377.06;4987012;28;20559;-90
2023/04/25 07:11:22;;;;;;;15.98;3.13;;;;;;;7.04;100.00;98284.78;5009943;28;20041;-87
2023/04/25 07:13:47;;;;;;;15.57;2.80;;;;;;;7.24;100.00;98529.00;4992948;28;20034;-89
2023/04/25 07:16:24;;;;;;;16.02;3.85;;;;;;;7.44;100.00;98748.63;5006590;28;20034;-89
2023/04/25 07:19:02;;;;;;;16.33;3.13;;;;;;;7.19;100.00;98561.44;5009266;28;20033;-89
2023/04/25 07:21:27;;;;;;;19.92;3.47;;;;;;;7.00;100.00;98514.34;4993206;28;20116;-88
2023/04/25 07:24:03;;;;;;;14.57;3.83;;;;;;;6.69;100.00;98390.91;5009452;28;20495;-88
2023/04/25 07:26:33;;;;;;;14.45;3.33;;;;;;;6.75;100.00;98477.66;4993712;28;20116;-89
2023/04/25 07:29:31;;;;;;;20.55;5.28;;;;;;;6.54;100.00;98490.97;4985229;28;20101;-88
2023/04/25 07:31:58;;;;;;;17.02;3.40;;;;;;;6.42;100.00;98455.38;5007748;28;20037;-88
2023/04/25 07:34:23;;;;;;;11.67;2.97;;;;;;;6.50;100.00;98615.09;5009104;28;20022;-88
2023/04/25 07:36:49;;;;;;;16.30;2.97;;;;;;;6.53;100.00;98616.56;4994804;28;20033;-88
2023/04/25 07:39:15;;;;;;;17.25;3.88;;;;;;;6.60;100.00;98675.78;5013484;28;20399;-88
2023/04/25 07:41:40;;;;;;;20.23;3.88;;;;;;;6.76;100.00;98706.53;5013722;28;20489;-88
2023/04/25 07:44:09;;;;;;;20.92;3.97;;;;;;;6.74;100.00;98709.41;4997420;28;20026;-89
2023/04/25 07:46:35;;;;;;;17.03;4.40;;;;;;;6.83;100.00;98781.69;5029629;28;20074;-88
2023/04/25 07:49:02;;;;;;;14.57;3.53;;;;;;;6.94;100.00;98777.75;5012917;28;20030;-88
2023/04/25 07:51:27;;;;;;;16.58;2.95;;;;;;;7.04;100.00;98703.16;5013206;28;20026;-88
2023/04/25 07:53:56;;;;;;;14.95;3.67;;;;;;;7.05;100.00;98680.94;4997151;28;20157;-90
2023/04/25 07:56:22;;;;;;;17.60;3.33;;;;;;;6.87;100.00;98647.69;5009965;28;20129;-90
2023/04/25 07:58:48;;;;;;;13.40;3.20;;;;;;;6.49;100.00;98445.66;5008286;28;20021;-88
2023/04/25 08:01:16;;;;;;;15.93;3.10;;;;;;;6.48;100.00;98481.91;5013728;28;20034;-89
2023/04/25 08:03:55;;;;;;;7.28;2.85;;;;;;;6.51;100.00;98676.91;4998579;28;20519;-88
2023/04/25 08:06:25;;;;;;;12.57;3.85;;;;;;;6.70;100.00;98778.91;4998120;28;20116;-88
2023/04/25 08:09:02;;;;;;;16.60;3.45;;;;;;;6.89;100.00;98924.22;4998592;28;20099;-88
2023/04/25 08:11:33;;;;;;;15.27;3.17;;;;;;;6.84;100.00;98709.09;5010181;28;20037;-89
2023/04/25 08:13:59;;;;;;;18.97;2.97;;;;;;;7.11;100.00;98805.69;5012809;28;20034;-89
2023/04/25 08:16:25;;;;;;;;;;;;;;;7.49;100.00;98886.97;4998105;28;20125;-88
2023/04/25 08:18:51;;;;;;;17.15;3.72;;;;;;;7.20;100.00;98575.50;5018497;28;20565;-89
2023/04/25 08:21:16;;;;;;;17.03;3.13;;;;;;;7.80;100.00;98764.47;5007655;28;20122;-89
2023/04/25 08:23:43;;;;;;;16.20;2.97;;;;;;;7.84;100.00;98494.72;5038048;28;20036;-90
2023/04/25 08:26:12;;;;;;;16.73;3.95;;;;;;;8.90;100.00;98583.69;5004618;28;20053;-88
2023/04/25 08:28:38;;;;;;;23.13;5.13;;;;;;;9.54;97.35;98417.88;5006027;28;20087;-90
2023/04/25 08:31:04;;;;;;;18.37;2.97;;;;;;;9.91;92.60;98077.75;5050272;28;20053;-89
2023/04/25 08:33:38;;;;;;;18.88;4.15;;;;;;;9.75;91.18;97936.34;5018504;28;20249;-89
2023/04/25 08:36:19;;;;;;;17.48;3.20;;;;;;;9.69;88.53;97743.56;5013421;28;20030;-89
2023/04/25 08:38:45;;;;;;;12.98;2.72;;;;;;;8.64;86.72;97385.84;5015492;28;20052;-88
2023/04/25 08:41:13;;;;;;;27.88;3.65;;;;;;;8.58;87.64;97563.06;5015993;28;20046;-90
2023/04/25 08:43:42;;;;;;;14.23;3.10;;;;;;;8.41;87.63;97600.13;5024974;28;20045;-89
2023/04/25 08:46:08;;;;;;;11.50;3.08;;;;;;;8.18;87.00;97541.53;5048609;28;20018;-90
2023/04/25 08:48:45;;;;;;;15.00;3.65;;;;;;;7.93;85.71;97414.94;5023865;28;20493;-88
2023/04/25 08:51:21;;;;;;;9.82;2.63;;;;;;;7.59;86.55;97470.38;5027910;28;20034;-88
2023/04/25 08:53:50;;;;;;;26.42;4.18;;;;;;;7.44;87.46;97581.41;5030686;28;20021;-88
2023/04/25 08:56:17;;;;;;;12.07;2.85;;;;;;;7.30;87.50;97623.19;5014962;28;20034;-88
2023/04/25 08:58:49;;;;;;;8.38;2.53;;;;;;;7.46;89.37;97886.44;5016266;28;20045;-89
2023/04/25 09:01:14;;;;;;;13.05;3.28;;;;;;;7.47;88.75;97886.25;5021449;28;20132;-88
2023/04/25 09:03:47;;;;;;;9.68;2.00;;;;;;;7.29;87.06;97660.56;4992502;28;20022;-88
2023/04/25 09:06:13;;;;;;;;;;;;;;;7.19;86.92;97643.28;5014394;28;20034;-89
2023/04/25 09:08:40;;;;;;;;;;;;;;;7.32;88.81;97883.03;4999439;28;19924;-87
2023/04/25 09:11:07;;;;;;;8.70;2.10;;;;;;;7.12;92.52;98234.19;5014889;28;19933;-89
2023/04/25 09:13:32;;;;;;;9.55;2.53;;;;;;;7.00;94.47;98424.16;5008011;28;20021;-88
2023/04/25 09:16:21;;;;;;;10.00;2.35;;;;;;;6.97;95.50;98494.31;5032129;23;20892;-75
2023/04/25 09:19:24;;;;;;;14.68;2.28;;;;;;;7.07;96.29;98564.78;5009863;28;20021;-78
2023/04/25 09:21:50;;;;;;;9.60;1.90;;;;;;;7.24;97.57;98745.81;5009402;28;20029;-76
2023/04/25 09:24:19;;;;;;;11.85;2.72;;;;;;;7.79;99.49;98981.47;4985338;28;20099;-74
2023/04/25 09:26:44;;;;;;;9.80;2.58;;;;;;;8.03;97.51;98858.06;5001527;28;20033;-75
2023/04/25 09:29:10;;;;;;;10.03;2.07;;;;;;;8.22;99.18;99007.28;4977510;28;20413;-75
2023/04/25 09:31:39;;;;;;;11.63;2.20;;;;;;;8.25;95.99;98719.78;5007137;28;20021;-76
2023/04/25 09:34:09;;;;;;;11.32;3.17;;;;;;;8.83;95.49;98810.72;4984389;28;20031;-75
2023/04/25 09:36:41;;;;;;;8.80;1.98;;;;;;;9.25;93.88;98728.13;5006937;28;20704;-74
2023/04/25 09:39:28;;;;;;;12.73;2.20;;;;;;;9.33;90.65;98452.81;5001393;28;20095;-74
2023/04/25 09:42:02;;;;;;;10.27;2.10;;;;;;;9.61;89.80;98477.28;4983644;28;20034;-74
2023/04/25 09:44:28;;;;;;;13.52;2.22;;;;;;;10.24;88.35;98467.72;4988133;28;20029;-75
2023/04/25 09:46:54;;;;;;;15.50;2.97;;;;;;;11.18;86.30;98461.34;4991454;28;20033;-74
2023/04/25 09:49:24;;;;;;;11.02;2.10;;;;;;;11.58;82.85;98209.69;5003342;28;20072;-75
2023/04/25 09:52:01;;;;;;;10.30;1.83;;;;;;;10.39;80.38;97553.44;5005248;28;20026;-75
2023/04/25 09:54:39;;;;;;;17.00;2.05;;;;;;;9.16;82.40;97566.06;4999767;28;20029;-76
2023/04/25 09:57:23;;;;;;;10.57;2.00;;;;;;;8.55;84.15;97756.84;4993919;28;20037;-74
2023/04/25 09:59:52;;;;;;;19.25;3.60;;;;;;;8.49;85.50;97894.13;4991464;28;20638;-74
2023/04/25 10:02:27;;;;;;;8.40;2.60;;;;;;;8.54;87.23;98193.97;5002483;28;20484;-74
2023/04/25 10:04:57;;;;;;;11.10;2.45;;;;;;;8.61;88.15;98314.44;4991059;28;20034;-75
2023/04/25 10:07:30;;;;;;;10.93;2.83;;;;;;;8.38;86.35;98089.72;4983671;28;20117;-75
2023/04/25 10:10:02;;;;;;;15.07;2.20;;;;;;;7.94;85.40;97880.66;4999169;28;20406;-74
2023/04/25 10:12:28;;;;;;;14.05;2.00;;;;;;;7.86;87.04;98053.56;5007438;28;20026;-74
2023/04/25 10:14:55;;;;;;;13.00;2.70;;;;;;;7.59;87.93;98135.97;5004485;28;20427;-75
2023/04/25 10:17:20;;;;;;;9.23;2.60;;;;;;;8.24;92.69;98784.59;5007044;28;20029;-75
2023/04/25 10:19:47;;;;;;;15.48;3.35;;;;;;;8.38;90.55;98618.81;5006462;28;20109;-74
2023/04/25 10:22:20;;;;;;;15.98;4.68;;;;;;;8.78;91.24;98730.69;4988981;28;20077;-75
2023/04/25 10:24:46;;;;;;;10.18;3.00;;;;;;;10.60;91.98;99237.41;4996591;28;20124;-74
2023/04/25 10:27:12;;;;;;;;;;;;;;;11.95;84.71;98732.78;5000821;28;20195;-76
2023/04/25 10:29:37;;;;;;;6.18;1.65;;;;;;;12.32;77.43;97968.47;5007938;28;20007;-79
2023/04/25 10:32:02;;;;;;;6.83;1.90;;;;;;;13.17;75.61;98012.09;5005481;28;20403;-75
2023/04/25 10:34:40;;;;;;;7.10;2.50;;;;;;;11.25;71.85;97005.84;4994287;28;20548;-74
2023/04/25 10:37:08;;;;;;;8.65;2.05;;;;;;;10.55;72.99;97128.56;4991683;28;20272;-75
2023/04/25 10:39:34;;;;;;;6.70;3.10;;;;;;;9.35;75.33;97176.22;4991607;28;20037;-74
2023/04/25 10:42:02;;;;;;;8.83;1.87;;;;;;;8.57;79.75;97641.25;5005447;28;20029;-74
2023/04/25 10:44:31;;;;;;;8.70;1.77;;;;;;;8.10;82.97;97959.00;4988125;28;20085;-75
2023/04/25 10:47:01;;;;;;;8.50;2.13;;;;;;;7.38;85.21;98086.59;4985217;28;20380;-77
2023/04/25 10:49:38;;;;;;;11.52;1.90;;;;;;;8.20;87.96;98651.25;4989620;28;20026;-75
2023/04/25 10:52:17;;;;;;;12.07;2.10;;;;;;;10.43;84.35;98805.56;5007417;28;20030;-75
2023/04/25 10:54:55;;;;;;;10.07;2.10;;;;;;;9.95;77.89;97808.97;5006220;28;20033;-74
2023/04/25 10:57:33;;;;;;;14.30;2.20;;;;;;;9.76;78.52;97860.69;4992963;28;20037;-74
2023/04/25 11:00:21;;;;;;;13.20;2.65;;;;;;;9.32;78.59;97815.63;5006638;28;20473;-74
2023/04/25 11:02:57;;;;;;;6.57;2.00;;;;;;;8.67;80.30;97909.31;4972848;28;20121;-75
2023/04/25 11:05:36;;;;;;;14.68;2.08;;;;;;;8.50;82.75;98177.63;4985755;28;20034;-74
2023/04/25 11:08:03;;;;;;;12.13;2.25;;;;;;;8.56;83.56;98311.59;5006176;28;20049;-75
2023/04/25 11:10:35;;;;;;;14.60;1.95;;;;;;;8.95;84.68;98546.69;5000441;28;20032;-75
2023/04/25 11:13:01;;;;;;;11.18;1.70;;;;;;;9.38;84.95;98668.69;5006707;28;20668;-75
2023/04/25 11:15:26;;;;;;;8.05;1.85;;;;;;;10.54;84.43;98921.50;4998905;28;20030;-74
2023/04/25 11:17:52;;;;;;;11.10;2.40;;;;;;;10.49;82.40;98596.63;4990167;28;20101;-77
2023/04/25 11:20:18;;;;;;;14.13;1.85;;;;;;;11.19;80.65;98609.06;4987917;28;20034;-75
2023/04/25 11:22:45;;;;;;;8.77;1.90;;;;;;;10.78;77.43;98056.06;4994853;28;20117;-75
2023/04/25 11:25:13;;;;;;;12.30;1.70;;;;;;;11.52;77.09;98263.22;4995990;28;20060;-75
2023/04/25 11:28:00;;;;;;;8.00;1.83;;;;;;;12.07;74.15;98046.38;4997145;28;20084;-75
2023/04/25 11:30:26;;;;;;;10.55;2.00;;;;;;;12.43;75.81;98344.88;5008106;28;20041;-74
2023/04/25 11:32:52;;;;;;;;;;;;;;;12.16;74.45;98127.06;4992188;28;20660;-79
2023/04/25 11:35:20;;;;;;;7.53;1.67;;;;;;;12.13;73.79;98026.72;4978298;28;19941;-74
2023/04/25 11:37:45;;;;;;;7.25;1.50;;;;;;;10.94;73.37;97606.16;4971783;28;20129;-76
2023/04/25 11:40:11;;;;;;;6.03;1.70;;;;;;;11.05;76.29;98108.22;5001343;28;20028;-74